This is the latest recevied weather packets stored in our database for station/object KD9IXX-13. If no packets are shown the sender has not sent any weather packets the latest 10 day(s).
| Time | Temp. | Humidity | Pressure | Rain* | Wind** | Luminosity | Snow |
|---|---|---|---|---|---|---|---|
| 1787412602 | 23.89° C | 67% | 1016.3 hPa | 0 mm | - | 673 W/m² | - |
| 1787412302 | 23.89° C | 65% | 1016.4 hPa | 0 mm | - | 648 W/m² | - |
| 1787411702 | 23.33° C | 67% | 1016.2 hPa | 0 mm | - | 679 W/m² | - |
| 1787410802 | 22.78° C | 70% | 1016.2 hPa | 0 mm | - | 625 W/m² | - |
| 1787410501 | 22.78° C | 70% | 1016 hPa | 0 mm | - | 606 W/m² | - |
| 1787409902 | 22.78° C | 72% | 1015.8 hPa | 0 mm | - | 602 W/m² | - |
| 1787409002 | 22.22° C | 74% | 1015.6 hPa | 0 mm | - | 590 W/m² | - |
| 1787408402 | 22.22° C | 75% | 1015.8 hPa | 0 mm | - | 550 W/m² | - |
| 1787406302 | 21.11° C | 82% | 1015.7 hPa | 0 mm | - | 362 W/m² | - |
| 1787406002 | 21.11° C | 84% | 1015.7 hPa | 0 mm | - | 325 W/m² | - |
| 1787405402 | 21.11° C | 84% | 1015.5 hPa | 0 mm | - | 306 W/m² | - |
| 1787405102 | 20.56° C | 87% | 1015.7 hPa | 0 mm | - | 281 W/m² | - |
| 1787404802 | 20.56° C | 87% | 1015.6 hPa | 0 mm | - | 266 W/m² | - |
| 1787404502 | 20° C | 90% | 1015.6 hPa | 0 mm | - | 233 W/m² | - |
| 1787404202 | 20° C | 92% | 1015.7 hPa | 0 mm | - | 208 W/m² | - |
| 1787403902 | 19.44° C | 95% | 1015.6 hPa | 0 mm | - | 198 W/m² | - |
| 1787403602 | 19.44° C | 97% | 1015.7 hPa | 0 mm | - | 177 W/m² | - |
| 1787403302 | 18.89° C | 98% | 1015.6 hPa | 0 mm | - | 96 W/m² | - |
| 1787403002 | 19.44° C | 99% | 1015.7 hPa | 0 mm | - | 101 W/m² | - |
| 1787402701 | 18.89° C | 99% | 1015.6 hPa | 0 mm | - | 143 W/m² | - |
| 1787402102 | 18.89° C | 99% | 1015.6 hPa | 0 mm | - | 69 W/m² | - |
| 1787400902 | 18.33° C | 99% | 1015.4 hPa | 0 mm | - | 45 W/m² | - |
| 1787400601 | 18.33° C | 99% | 1015.4 hPa | 0 mm | - | 42 W/m² | - |
| 1787400302 | 17.78° C | 99% | 1015.4 hPa | 0 mm | - | 38 W/m² | - |
| 1787399402 | 17.78° C | 99% | 1015.1 hPa | 0 mm | - | 27 W/m² | - |
* Rain latest hour (hover to see other rain measurements)
** Current wind speed in m/s (hover to see current wind gust speed)